sensor_id;sensor_type;location;lat;lon;timestamp;P1;durP1;ratioP1;P2;durP2;ratioP2
59052;SDS011;44843;44.728;10.396;2024-01-15T00:01:58;77.72;;;29.80;;
59052;SDS011;44843;44.728;10.396;2024-01-15T00:04:24;69.95;;;29.45;;
59052;SDS011;44843;44.728;10.396;2024-01-15T00:06:49;67.68;;;31.25;;
59052;SDS011;44843;44.728;10.396;2024-01-15T00:09:15;64.50;;;28.10;;
59052;SDS011;44843;44.728;10.396;2024-01-15T00:11:40;69.72;;;32.25;;
59052;SDS011;44843;44.728;10.396;2024-01-15T00:14:07;65.28;;;29.33;;
59052;SDS011;44843;44.728;10.396;2024-01-15T00:16:32;75.50;;;32.30;;
59052;SDS011;44843;44.728;10.396;2024-01-15T00:18:57;68.78;;;30.75;;
59052;SDS011;44843;44.728;10.396;2024-01-15T00:21:23;73.53;;;32.58;;
59052;SDS011;44843;44.728;10.396;2024-01-15T00:23:48;74.60;;;32.30;;
59052;SDS011;44843;44.728;10.396;2024-01-15T00:26:13;68.22;;;31.23;;
59052;SDS011;44843;44.728;10.396;2024-01-15T00:28:39;82.43;;;33.47;;
59052;SDS011;44843;44.728;10.396;2024-01-15T00:31:04;80.38;;;33.22;;
59052;SDS011;44843;44.728;10.396;2024-01-15T00:33:30;72.07;;;29.88;;
59052;SDS011;44843;44.728;10.396;2024-01-15T00:35:56;74.72;;;30.02;;
59052;SDS011;44843;44.728;10.396;2024-01-15T00:38:21;65.75;;;29.83;;
59052;SDS011;44843;44.728;10.396;2024-01-15T00:40:47;70.05;;;30.02;;
59052;SDS011;44843;44.728;10.396;2024-01-15T00:43:12;64.53;;;29.10;;
59052;SDS011;44843;44.728;10.396;2024-01-15T00:45:37;63.50;;;28.40;;
59052;SDS011;44843;44.728;10.396;2024-01-15T00:48:03;60.97;;;28.65;;
59052;SDS011;44843;44.728;10.396;2024-01-15T00:50:29;64.70;;;31.35;;
59052;SDS011;44843;44.728;10.396;2024-01-15T00:52:54;62.15;;;27.40;;
59052;SDS011;44843;44.728;10.396;2024-01-15T00:55:20;82.18;;;33.22;;
59052;SDS011;44843;44.728;10.396;2024-01-15T00:57:45;66.80;;;31.20;;
59052;SDS011;44843;44.728;10.396;2024-01-15T01:00:11;67.88;;;30.60;;
59052;SDS011;44843;44.728;10.396;2024-01-15T01:02:36;62.47;;;27.83;;
59052;SDS011;44843;44.728;10.396;2024-01-15T01:05:02;64.20;;;29.33;;
59052;SDS011;44843;44.728;10.396;2024-01-15T01:07:28;69.22;;;30.63;;
59052;SDS011;44843;44.728;10.396;2024-01-15T01:09:53;56.08;;;28.50;;
59052;SDS011;44843;44.728;10.396;2024-01-15T01:12:20;56.75;;;27.70;;
59052;SDS011;44843;44.728;10.396;2024-01-15T01:14:45;57.28;;;28.40;;
59052;SDS011;44843;44.728;10.396;2024-01-15T01:17:10;62.28;;;27.73;;
59052;SDS011;44843;44.728;10.396;2024-01-15T01:19:36;56.90;;;26.60;;
59052;SDS011;44843;44.728;10.396;2024-01-15T01:22:01;58.22;;;26.73;;
59052;SDS011;44843;44.728;10.396;2024-01-15T01:24:27;58.33;;;27.30;;
59052;SDS011;44843;44.728;10.396;2024-01-15T01:26:53;54.92;;;26.73;;
59052;SDS011;44843;44.728;10.396;2024-01-15T01:29:18;60.60;;;26.08;;
59052;SDS011;44843;44.728;10.396;2024-01-15T01:31:44;55.58;;;26.02;;
59052;SDS011;44843;44.728;10.396;2024-01-15T01:34:10;57.55;;;28.75;;
59052;SDS011;44843;44.728;10.396;2024-01-15T01:36:36;55.83;;;26.88;;
59052;SDS011;44843;44.728;10.396;2024-01-15T01:39:01;56.38;;;28.50;;
59052;SDS011;44843;44.728;10.396;2024-01-15T01:41:27;55.65;;;25.20;;
59052;SDS011;44843;44.728;10.396;2024-01-15T01:43:52;51.60;;;25.73;;
59052;SDS011;44843;44.728;10.396;2024-01-15T01:46:18;49.38;;;24.23;;
59052;SDS011;44843;44.728;10.396;2024-01-15T01:48:43;56.42;;;25.85;;
59052;SDS011;44843;44.728;10.396;2024-01-15T01:51:09;56.15;;;28.17;;
59052;SDS011;44843;44.728;10.396;2024-01-15T01:53:35;52.38;;;25.85;;
59052;SDS011;44843;44.728;10.396;2024-01-15T01:56:03;60.67;;;27.75;;
59052;SDS011;44843;44.728;10.396;2024-01-15T01:58:29;52.17;;;27.05;;
59052;SDS011;44843;44.728;10.396;2024-01-15T02:00:57;51.80;;;26.17;;
59052;SDS011;44843;44.728;10.396;2024-01-15T02:03:24;54.67;;;26.75;;
59052;SDS011;44843;44.728;10.396;2024-01-15T02:05:49;56.22;;;26.55;;
59052;SDS011;44843;44.728;10.396;2024-01-15T02:08:16;52.50;;;24.08;;
59052;SDS011;44843;44.728;10.396;2024-01-15T02:10:41;56.05;;;26.40;;
59052;SDS011;44843;44.728;10.396;2024-01-15T02:13:07;54.65;;;26.17;;
59052;SDS011;44843;44.728;10.396;2024-01-15T02:15:32;60.10;;;27.42;;
59052;SDS011;44843;44.728;10.396;2024-01-15T02:17:58;56.85;;;28.77;;
59052;SDS011;44843;44.728;10.396;2024-01-15T02:20:24;52.92;;;27.20;;
59052;SDS011;44843;44.728;10.396;2024-01-15T02:22:51;57.97;;;25.27;;
59052;SDS011;44843;44.728;10.396;2024-01-15T02:25:16;64.60;;;28.38;;
59052;SDS011;44843;44.728;10.396;2024-01-15T02:27:42;66.68;;;29.70;;
59052;SDS011;44843;44.728;10.396;2024-01-15T02:30:09;66.55;;;29.42;;
59052;SDS011;44843;44.728;10.396;2024-01-15T02:32:36;77.93;;;31.10;;
59052;SDS011;44843;44.728;10.396;2024-01-15T02:35:02;54.25;;;26.65;;
59052;SDS011;44843;44.728;10.396;2024-01-15T02:37:27;66.35;;;27.40;;
59052;SDS011;44843;44.728;10.396;2024-01-15T02:39:53;63.33;;;31.02;;
59052;SDS011;44843;44.728;10.396;2024-01-15T02:42:18;66.53;;;28.60;;
59052;SDS011;44843;44.728;10.396;2024-01-15T02:44:43;77.60;;;30.08;;
59052;SDS011;44843;44.728;10.396;2024-01-15T02:47:09;70.55;;;32.15;;
59052;SDS011;44843;44.728;10.396;2024-01-15T02:49:34;66.80;;;28.10;;
59052;SDS011;44843;44.728;10.396;2024-01-15T02:51:59;66.32;;;29.52;;
59052;SDS011;44843;44.728;10.396;2024-01-15T02:54:25;64.60;;;30.13;;
59052;SDS011;44843;44.728;10.396;2024-01-15T02:56:50;68.30;;;29.77;;
59052;SDS011;44843;44.728;10.396;2024-01-15T02:59:16;62.28;;;29.90;;
59052;SDS011;44843;44.728;10.396;2024-01-15T03:01:41;62.95;;;30.38;;
59052;SDS011;44843;44.728;10.396;2024-01-15T03:04:07;57.63;;;27.58;;
59052;SDS011;44843;44.728;10.396;2024-01-15T03:06:32;64.90;;;29.08;;
59052;SDS011;44843;44.728;10.396;2024-01-15T03:08:57;62.25;;;27.42;;
59052;SDS011;44843;44.728;10.396;2024-01-15T03:11:23;62.42;;;27.33;;
59052;SDS011;44843;44.728;10.396;2024-01-15T03:13:48;57.15;;;29.40;;
59052;SDS011;44843;44.728;10.396;2024-01-15T03:16:13;57.67;;;29.10;;
59052;SDS011;44843;44.728;10.396;2024-01-15T03:18:39;59.45;;;29.23;;
59052;SDS011;44843;44.728;10.396;2024-01-15T03:21:04;62.30;;;29.33;;
59052;SDS011;44843;44.728;10.396;2024-01-15T03:23:31;58.05;;;27.83;;
59052;SDS011;44843;44.728;10.396;2024-01-15T03:25:56;63.08;;;27.83;;
59052;SDS011;44843;44.728;10.396;2024-01-15T03:28:21;61.45;;;27.85;;
59052;SDS011;44843;44.728;10.396;2024-01-15T03:30:47;60.15;;;29.15;;
59052;SDS011;44843;44.728;10.396;2024-01-15T03:33:12;62.25;;;27.92;;
59052;SDS011;44843;44.728;10.396;2024-01-15T03:35:37;58.25;;;27.13;;
59052;SDS011;44843;44.728;10.396;2024-01-15T03:38:03;58.83;;;27.52;;
59052;SDS011;44843;44.728;10.396;2024-01-15T03:40:28;60.38;;;28.05;;
59052;SDS011;44843;44.728;10.396;2024-01-15T03:42:54;56.88;;;29.67;;
59052;SDS011;44843;44.728;10.396;2024-01-15T03:45:19;56.40;;;27.45;;
59052;SDS011;44843;44.728;10.396;2024-01-15T03:47:45;54.67;;;27.10;;
59052;SDS011;44843;44.728;10.396;2024-01-15T03:50:10;60.05;;;27.92;;
59052;SDS011;44843;44.728;10.396;2024-01-15T03:52:35;53.55;;;26.73;;
59052;SDS011;44843;44.728;10.396;2024-01-15T03:55:01;56.42;;;27.40;;
59052;SDS011;44843;44.728;10.396;2024-01-15T03:57:26;48.28;;;24.77;;
59052;SDS011;44843;44.728;10.396;2024-01-15T03:59:51;66.57;;;28.15;;
59052;SDS011;44843;44.728;10.396;2024-01-15T04:02:17;53.88;;;26.48;;
59052;SDS011;44843;44.728;10.396;2024-01-15T04:04:42;54.83;;;27.13;;
59052;SDS011;44843;44.728;10.396;2024-01-15T04:07:11;55.53;;;27.02;;
59052;SDS011;44843;44.728;10.396;2024-01-15T04:09:36;56.72;;;27.40;;
59052;SDS011;44843;44.728;10.396;2024-01-15T04:12:02;59.90;;;27.92;;
59052;SDS011;44843;44.728;10.396;2024-01-15T04:14:27;63.00;;;27.27;;
59052;SDS011;44843;44.728;10.396;2024-01-15T04:16:53;63.58;;;28.27;;
59052;SDS011;44843;44.728;10.396;2024-01-15T04:19:19;58.63;;;28.25;;
59052;SDS011;44843;44.728;10.396;2024-01-15T04:21:44;58.38;;;29.30;;
59052;SDS011;44843;44.728;10.396;2024-01-15T04:24:10;60.38;;;27.52;;
59052;SDS011;44843;44.728;10.396;2024-01-15T04:26:35;55.50;;;26.92;;
59052;SDS011;44843;44.728;10.396;2024-01-15T04:29:00;53.78;;;26.65;;
59052;SDS011;44843;44.728;10.396;2024-01-15T04:31:26;61.05;;;29.50;;
59052;SDS011;44843;44.728;10.396;2024-01-15T04:33:54;72.30;;;30.13;;
59052;SDS011;44843;44.728;10.396;2024-01-15T04:36:20;65.47;;;30.17;;
59052;SDS011;44843;44.728;10.396;2024-01-15T04:38:45;58.28;;;27.85;;
59052;SDS011;44843;44.728;10.396;2024-01-15T04:41:11;57.83;;;27.13;;
59052;SDS011;44843;44.728;10.396;2024-01-15T04:43:38;77.32;;;32.03;;
59052;SDS011;44843;44.728;10.396;2024-01-15T04:46:05;72.22;;;31.63;;
59052;SDS011;44843;44.728;10.396;2024-01-15T04:48:30;73.25;;;32.53;;
59052;SDS011;44843;44.728;10.396;2024-01-15T04:50:56;69.07;;;32.75;;
59052;SDS011;44843;44.728;10.396;2024-01-15T04:53:21;78.53;;;32.83;;
59052;SDS011;44843;44.728;10.396;2024-01-15T04:55:46;69.18;;;32.15;;
59052;SDS011;44843;44.728;10.396;2024-01-15T04:58:12;82.57;;;32.28;;
59052;SDS011;44843;44.728;10.396;2024-01-15T05:00:37;71.25;;;31.65;;
59052;SDS011;44843;44.728;10.396;2024-01-15T05:03:03;73.25;;;30.65;;
59052;SDS011;44843;44.728;10.396;2024-01-15T05:05:28;71.32;;;31.25;;
59052;SDS011;44843;44.728;10.396;2024-01-15T05:07:53;69.55;;;31.73;;
59052;SDS011;44843;44.728;10.396;2024-01-15T05:10:19;74.85;;;34.17;;
59052;SDS011;44843;44.728;10.396;2024-01-15T05:12:44;80.32;;;34.60;;
59052;SDS011;44843;44.728;10.396;2024-01-15T05:15:10;72.43;;;33.08;;
59052;SDS011;44843;44.728;10.396;2024-01-15T05:17:35;67.43;;;32.40;;
59052;SDS011;44843;44.728;10.396;2024-01-15T05:20:00;70.05;;;31.10;;
59052;SDS011;44843;44.728;10.396;2024-01-15T05:22:26;70.80;;;31.75;;
59052;SDS011;44843;44.728;10.396;2024-01-15T05:24:51;82.50;;;35.35;;
59052;SDS011;44843;44.728;10.396;2024-01-15T05:27:16;68.50;;;31.02;;
59052;SDS011;44843;44.728;10.396;2024-01-15T05:29:42;73.72;;;31.83;;
59052;SDS011;44843;44.728;10.396;2024-01-15T05:32:07;74.07;;;29.67;;
59052;SDS011;44843;44.728;10.396;2024-01-15T05:34:32;78.22;;;31.83;;
59052;SDS011;44843;44.728;10.396;2024-01-15T05:36:58;65.78;;;31.13;;
59052;SDS011;44843;44.728;10.396;2024-01-15T05:39:23;65.88;;;30.92;;
59052;SDS011;44843;44.728;10.396;2024-01-15T05:41:48;71.80;;;31.13;;
59052;SDS011;44843;44.728;10.396;2024-01-15T05:44:14;76.03;;;32.13;;
59052;SDS011;44843;44.728;10.396;2024-01-15T05:46:39;72.38;;;31.60;;
59052;SDS011;44843;44.728;10.396;2024-01-15T05:49:04;66.70;;;31.38;;
59052;SDS011;44843;44.728;10.396;2024-01-15T05:51:30;76.47;;;33.90;;
59052;SDS011;44843;44.728;10.396;2024-01-15T05:53:55;71.53;;;29.50;;
59052;SDS011;44843;44.728;10.396;2024-01-15T05:56:21;71.97;;;29.55;;
59052;SDS011;44843;44.728;10.396;2024-01-15T05:58:46;69.68;;;30.35;;
59052;SDS011;44843;44.728;10.396;2024-01-15T06:01:11;66.38;;;29.65;;
59052;SDS011;44843;44.728;10.396;2024-01-15T06:03:37;68.32;;;30.73;;
59052;SDS011;44843;44.728;10.396;2024-01-15T06:06:02;70.75;;;32.55;;
59052;SDS011;44843;44.728;10.396;2024-01-15T06:08:27;71.35;;;31.98;;
59052;SDS011;44843;44.728;10.396;2024-01-15T06:10:53;73.55;;;31.02;;
59052;SDS011;44843;44.728;10.396;2024-01-15T06:13:19;73.95;;;31.70;;
59052;SDS011;44843;44.728;10.396;2024-01-15T06:15:44;64.55;;;31.73;;
59052;SDS011;44843;44.728;10.396;2024-01-15T06:18:10;70.80;;;30.00;;
59052;SDS011;44843;44.728;10.396;2024-01-15T06:20:35;70.78;;;31.17;;
59052;SDS011;44843;44.728;10.396;2024-01-15T06:23:00;64.82;;;30.25;;
59052;SDS011;44843;44.728;10.396;2024-01-15T06:25:26;71.80;;;31.92;;
59052;SDS011;44843;44.728;10.396;2024-01-15T06:27:51;67.93;;;31.15;;
59052;SDS011;44843;44.728;10.396;2024-01-15T06:30:16;64.72;;;30.02;;
59052;SDS011;44843;44.728;10.396;2024-01-15T06:32:42;64.28;;;29.48;;
59052;SDS011;44843;44.728;10.396;2024-01-15T06:35:07;59.60;;;27.63;;
59052;SDS011;44843;44.728;10.396;2024-01-15T06:37:35;68.00;;;29.65;;
59052;SDS011;44843;44.728;10.396;2024-01-15T06:40:00;65.05;;;29.90;;
59052;SDS011;44843;44.728;10.396;2024-01-15T06:42:26;59.33;;;29.08;;
59052;SDS011;44843;44.728;10.396;2024-01-15T06:44:51;63.33;;;28.20;;
59052;SDS011;44843;44.728;10.396;2024-01-15T06:47:16;65.18;;;31.83;;
59052;SDS011;44843;44.728;10.396;2024-01-15T06:49:42;68.10;;;29.98;;
59052;SDS011;44843;44.728;10.396;2024-01-15T06:52:08;62.15;;;26.95;;
59052;SDS011;44843;44.728;10.396;2024-01-15T06:54:33;64.65;;;29.13;;
59052;SDS011;44843;44.728;10.396;2024-01-15T06:56:59;62.83;;;30.90;;
59052;SDS011;44843;44.728;10.396;2024-01-15T06:59:24;60.53;;;28.77;;
59052;SDS011;44843;44.728;10.396;2024-01-15T07:01:49;65.32;;;29.50;;
59052;SDS011;44843;44.728;10.396;2024-01-15T07:04:15;57.20;;;29.20;;
59052;SDS011;44843;44.728;10.396;2024-01-15T07:06:40;60.05;;;28.80;;
59052;SDS011;44843;44.728;10.396;2024-01-15T07:09:05;62.75;;;29.83;;
59052;SDS011;44843;44.728;10.396;2024-01-15T07:11:31;60.63;;;29.50;;
59052;SDS011;44843;44.728;10.396;2024-01-15T07:13:56;59.10;;;27.80;;
59052;SDS011;44843;44.728;10.396;2024-01-15T07:16:22;58.35;;;29.45;;
59052;SDS011;44843;44.728;10.396;2024-01-15T07:18:47;48.80;;;25.58;;
59052;SDS011;44843;44.728;10.396;2024-01-15T07:21:12;56.22;;;27.42;;
59052;SDS011;44843;44.728;10.396;2024-01-15T07:23:38;52.25;;;27.27;;
59052;SDS011;44843;44.728;10.396;2024-01-15T07:26:04;56.17;;;27.42;;
59052;SDS011;44843;44.728;10.396;2024-01-15T07:28:30;57.65;;;29.20;;
59052;SDS011;44843;44.728;10.396;2024-01-15T07:30:56;52.65;;;27.42;;
59052;SDS011;44843;44.728;10.396;2024-01-15T07:33:22;59.25;;;29.08;;
59052;SDS011;44843;44.728;10.396;2024-01-15T07:35:47;54.30;;;28.02;;
59052;SDS011;44843;44.728;10.396;2024-01-15T07:38:13;58.22;;;28.42;;
59052;SDS011;44843;44.728;10.396;2024-01-15T07:40:38;50.63;;;26.80;;
59052;SDS011;44843;44.728;10.396;2024-01-15T07:43:04;54.95;;;28.00;;
59052;SDS011;44843;44.728;10.396;2024-01-15T07:45:30;57.78;;;28.42;;
59052;SDS011;44843;44.728;10.396;2024-01-15T07:47:55;53.03;;;27.50;;
59052;SDS011;44843;44.728;10.396;2024-01-15T07:50:20;57.30;;;28.92;;
59052;SDS011;44843;44.728;10.396;2024-01-15T07:52:46;56.20;;;29.42;;
59052;SDS011;44843;44.728;10.396;2024-01-15T07:55:11;54.33;;;26.92;;
59052;SDS011;44843;44.728;10.396;2024-01-15T07:57:37;57.90;;;28.00;;
59052;SDS011;44843;44.728;10.396;2024-01-15T08:00:02;54.03;;;27.58;;
59052;SDS011;44843;44.728;10.396;2024-01-15T08:02:31;54.65;;;29.52;;
59052;SDS011;44843;44.728;10.396;2024-01-15T08:04:57;57.05;;;28.13;;
59052;SDS011;44843;44.728;10.396;2024-01-15T08:07:24;60.10;;;30.15;;
59052;SDS011;44843;44.728;10.396;2024-01-15T08:09:50;58.55;;;27.33;;
59052;SDS011;44843;44.728;10.396;2024-01-15T08:12:16;57.13;;;29.63;;
59052;SDS011;44843;44.728;10.396;2024-01-15T08:14:41;55.95;;;28.48;;
59052;SDS011;44843;44.728;10.396;2024-01-15T08:17:06;55.05;;;27.92;;
59052;SDS011;44843;44.728;10.396;2024-01-15T08:19:32;49.55;;;25.27;;
59052;SDS011;44843;44.728;10.396;2024-01-15T08:21:57;54.78;;;28.58;;
59052;SDS011;44843;44.728;10.396;2024-01-15T08:24:22;58.00;;;29.08;;
59052;SDS011;44843;44.728;10.396;2024-01-15T08:26:48;48.30;;;27.10;;
59052;SDS011;44843;44.728;10.396;2024-01-15T08:29:13;56.75;;;30.38;;
59052;SDS011;44843;44.728;10.396;2024-01-15T08:31:39;56.15;;;29.27;;
59052;SDS011;44843;44.728;10.396;2024-01-15T08:34:04;56.40;;;30.05;;
59052;SDS011;44843;44.728;10.396;2024-01-15T08:36:29;57.90;;;29.50;;
59052;SDS011;44843;44.728;10.396;2024-01-15T08:38:56;58.38;;;29.63;;
59052;SDS011;44843;44.728;10.396;2024-01-15T08:41:21;57.35;;;28.27;;
59052;SDS011;44843;44.728;10.396;2024-01-15T08:43:47;58.45;;;30.35;;
59052;SDS011;44843;44.728;10.396;2024-01-15T08:46:12;61.85;;;29.52;;
59052;SDS011;44843;44.728;10.396;2024-01-15T08:48:38;56.97;;;29.70;;
59052;SDS011;44843;44.728;10.396;2024-01-15T08:51:04;53.92;;;28.90;;
59052;SDS011;44843;44.728;10.396;2024-01-15T08:53:30;54.58;;;28.13;;
59052;SDS011;44843;44.728;10.396;2024-01-15T08:55:55;57.85;;;29.00;;
59052;SDS011;44843;44.728;10.396;2024-01-15T08:58:21;57.90;;;30.27;;
59052;SDS011;44843;44.728;10.396;2024-01-15T09:00:46;54.60;;;28.30;;
59052;SDS011;44843;44.728;10.396;2024-01-15T09:03:11;51.90;;;29.08;;
59052;SDS011;44843;44.728;10.396;2024-01-15T09:05:37;55.03;;;28.02;;
59052;SDS011;44843;44.728;10.396;2024-01-15T09:08:02;56.22;;;29.40;;
59052;SDS011;44843;44.728;10.396;2024-01-15T09:10:28;61.00;;;30.00;;
59052;SDS011;44843;44.728;10.396;2024-01-15T09:12:53;50.00;;;28.70;;
59052;SDS011;44843;44.728;10.396;2024-01-15T09:15:18;58.30;;;30.25;;
59052;SDS011;44843;44.728;10.396;2024-01-15T09:17:45;58.05;;;30.48;;
59052;SDS011;44843;44.728;10.396;2024-01-15T09:20:11;59.15;;;29.63;;
59052;SDS011;44843;44.728;10.396;2024-01-15T09:22:39;54.42;;;27.38;;
59052;SDS011;44843;44.728;10.396;2024-01-15T09:25:09;57.75;;;29.98;;
59052;SDS011;44843;44.728;10.396;2024-01-15T09:27:35;58.53;;;29.20;;
59052;SDS011;44843;44.728;10.396;2024-01-15T09:30:01;56.45;;;29.65;;
59052;SDS011;44843;44.728;10.396;2024-01-15T09:32:27;55.70;;;29.25;;
59052;SDS011;44843;44.728;10.396;2024-01-15T09:34:52;54.38;;;29.17;;
59052;SDS011;44843;44.728;10.396;2024-01-15T09:37:18;55.15;;;28.02;;
59052;SDS011;44843;44.728;10.396;2024-01-15T09:39:43;57.72;;;29.52;;
59052;SDS011;44843;44.728;10.396;2024-01-15T09:42:09;53.97;;;27.70;;
59052;SDS011;44843;44.728;10.396;2024-01-15T09:44:35;55.83;;;27.55;;
59052;SDS011;44843;44.728;10.396;2024-01-15T09:47:02;47.65;;;27.48;;
59052;SDS011;44843;44.728;10.396;2024-01-15T09:49:29;53.17;;;28.63;;
59052;SDS011;44843;44.728;10.396;2024-01-15T09:51:55;56.25;;;30.00;;
59052;SDS011;44843;44.728;10.396;2024-01-15T09:54:21;56.13;;;29.58;;
59052;SDS011;44843;44.728;10.396;2024-01-15T09:56:48;55.33;;;29.88;;
59052;SDS011;44843;44.728;10.396;2024-01-15T09:59:15;49.97;;;29.08;;
59052;SDS011;44843;44.728;10.396;2024-01-15T10:01:41;53.78;;;27.48;;
59052;SDS011;44843;44.728;10.396;2024-01-15T10:04:08;54.20;;;29.45;;
59052;SDS011;44843;44.728;10.396;2024-01-15T10:06:33;55.67;;;29.55;;
59052;SDS011;44843;44.728;10.396;2024-01-15T10:09:00;51.92;;;27.15;;
59052;SDS011;44843;44.728;10.396;2024-01-15T10:11:25;53.13;;;29.45;;
59052;SDS011;44843;44.728;10.396;2024-01-15T10:13:51;56.28;;;28.02;;
59052;SDS011;44843;44.728;10.396;2024-01-15T10:16:21;60.22;;;29.33;;
59052;SDS011;44843;44.728;10.396;2024-01-15T10:18:47;51.60;;;28.70;;
59052;SDS011;44843;44.728;10.396;2024-01-15T10:21:13;54.20;;;27.55;;
59052;SDS011;44843;44.728;10.396;2024-01-15T10:23:46;56.35;;;30.52;;
59052;SDS011;44843;44.728;10.396;2024-01-15T10:26:27;55.75;;;28.33;;
59052;SDS011;44843;44.728;10.396;2024-01-15T10:29:07;57.95;;;30.40;;
59052;SDS011;44843;44.728;10.396;2024-01-15T10:31:49;48.05;;;27.17;;
59052;SDS011;44843;44.728;10.396;2024-01-15T10:34:24;52.30;;;28.27;;
59052;SDS011;44843;44.728;10.396;2024-01-15T10:37:03;53.05;;;28.70;;
59052;SDS011;44843;44.728;10.396;2024-01-15T10:39:37;55.55;;;29.83;;
59052;SDS011;44843;44.728;10.396;2024-01-15T10:42:11;54.35;;;29.23;;
59052;SDS011;44843;44.728;10.396;2024-01-15T10:44:44;59.93;;;29.60;;
59052;SDS011;44843;44.728;10.396;2024-01-15T10:47:14;61.38;;;29.38;;
59052;SDS011;44843;44.728;10.396;2024-01-15T10:49:45;58.83;;;30.15;;
59052;SDS011;44843;44.728;10.396;2024-01-15T10:52:16;65.10;;;30.85;;
59052;SDS011;44843;44.728;10.396;2024-01-15T10:54:46;54.78;;;28.88;;
59052;SDS011;44843;44.728;10.396;2024-01-15T10:57:18;61.08;;;31.33;;
59052;SDS011;44843;44.728;10.396;2024-01-15T10:59:51;54.13;;;29.98;;
59052;SDS011;44843;44.728;10.396;2024-01-15T11:02:21;54.53;;;29.52;;
59052;SDS011;44843;44.728;10.396;2024-01-15T11:04:52;54.55;;;28.08;;
59052;SDS011;44843;44.728;10.396;2024-01-15T11:07:23;51.53;;;29.83;;
59052;SDS011;44843;44.728;10.396;2024-01-15T11:09:55;56.72;;;30.23;;
59052;SDS011;44843;44.728;10.396;2024-01-15T11:12:28;53.70;;;30.08;;
59052;SDS011;44843;44.728;10.396;2024-01-15T11:15:02;54.95;;;29.90;;
59052;SDS011;44843;44.728;10.396;2024-01-15T11:18:19;56.38;;;30.13;;
59052;SDS011;44843;44.728;10.396;2024-01-15T11:20:31;53.35;;;27.33;;
59052;SDS011;44843;44.728;10.396;2024-01-15T11:23:01;60.25;;;29.67;;
59052;SDS011;44843;44.728;10.396;2024-01-15T11:25:35;53.95;;;27.63;;
59052;SDS011;44843;44.728;10.396;2024-01-15T11:28:06;58.10;;;29.55;;
59052;SDS011;44843;44.728;10.396;2024-01-15T11:30:56;57.42;;;31.20;;
59052;SDS011;44843;44.728;10.396;2024-01-15T11:33:32;54.55;;;28.48;;
59052;SDS011;44843;44.728;10.396;2024-01-15T11:36:12;56.28;;;30.58;;
59052;SDS011;44843;44.728;10.396;2024-01-15T11:38:43;53.40;;;29.55;;
59052;SDS011;44843;44.728;10.396;2024-01-15T11:41:15;53.05;;;27.67;;
59052;SDS011;44843;44.728;10.396;2024-01-15T11:43:46;64.10;;;29.10;;
59052;SDS011;44843;44.728;10.396;2024-01-15T11:46:15;53.58;;;27.80;;
59052;SDS011;44843;44.728;10.396;2024-01-15T11:48:52;57.90;;;28.75;;
59052;SDS011;44843;44.728;10.396;2024-01-15T11:51:30;52.70;;;27.88;;
59052;SDS011;44843;44.728;10.396;2024-01-15T11:54:01;51.03;;;27.58;;
59052;SDS011;44843;44.728;10.396;2024-01-15T11:56:34;49.00;;;26.50;;
59052;SDS011;44843;44.728;10.396;2024-01-15T11:59:04;47.45;;;26.38;;
59052;SDS011;44843;44.728;10.396;2024-01-15T12:01:33;46.47;;;25.27;;
59052;SDS011;44843;44.728;10.396;2024-01-15T12:04:04;49.90;;;26.42;;
59052;SDS011;44843;44.728;10.396;2024-01-15T12:06:34;57.58;;;27.88;;
59052;SDS011;44843;44.728;10.396;2024-01-15T12:09:07;51.65;;;28.05;;
59052;SDS011;44843;44.728;10.396;2024-01-15T12:11:37;46.13;;;26.38;;
59052;SDS011;44843;44.728;10.396;2024-01-15T12:14:12;51.25;;;27.20;;
59052;SDS011;44843;44.728;10.396;2024-01-15T12:16:41;46.17;;;26.17;;
59052;SDS011;44843;44.728;10.396;2024-01-15T12:19:10;43.95;;;24.50;;
59052;SDS011;44843;44.728;10.396;2024-01-15T12:21:40;48.75;;;26.48;;
59052;SDS011;44843;44.728;10.396;2024-01-15T12:24:07;50.28;;;26.10;;
59052;SDS011;44843;44.728;10.396;2024-01-15T12:26:32;51.60;;;25.77;;
59052;SDS011;44843;44.728;10.396;2024-01-15T12:29:00;50.78;;;26.40;;
59052;SDS011;44843;44.728;10.396;2024-01-15T12:31:26;45.30;;;24.83;;
59052;SDS011;44843;44.728;10.396;2024-01-15T12:33:52;43.83;;;24.65;;
59052;SDS011;44843;44.728;10.396;2024-01-15T12:36:21;42.90;;;25.02;;
59052;SDS011;44843;44.728;10.396;2024-01-15T12:38:46;48.28;;;26.83;;
59052;SDS011;44843;44.728;10.396;2024-01-15T12:41:12;54.67;;;25.90;;
59052;SDS011;44843;44.728;10.396;2024-01-15T12:43:37;50.30;;;27.40;;
59052;SDS011;44843;44.728;10.396;2024-01-15T12:46:03;48.63;;;25.92;;
59052;SDS011;44843;44.728;10.396;2024-01-15T12:48:29;52.22;;;27.27;;
59052;SDS011;44843;44.728;10.396;2024-01-15T12:50:55;54.85;;;27.73;;
59052;SDS011;44843;44.728;10.396;2024-01-15T12:53:20;56.80;;;26.88;;
59052;SDS011;44843;44.728;10.396;2024-01-15T12:55:46;46.00;;;25.05;;
59052;SDS011;44843;44.728;10.396;2024-01-15T12:58:12;49.50;;;27.65;;
59052;SDS011;44843;44.728;10.396;2024-01-15T13:00:37;45.42;;;25.55;;
59052;SDS011;44843;44.728;10.396;2024-01-15T13:03:02;49.67;;;27.27;;
59052;SDS011;44843;44.728;10.396;2024-01-15T13:05:28;56.38;;;25.50;;
59052;SDS011;44843;44.728;10.396;2024-01-15T13:07:56;50.95;;;27.40;;
59052;SDS011;44843;44.728;10.396;2024-01-15T13:10:21;48.90;;;26.33;;
59052;SDS011;44843;44.728;10.396;2024-01-15T13:12:47;46.20;;;25.60;;
59052;SDS011;44843;44.728;10.396;2024-01-15T13:15:12;47.55;;;25.80;;
59052;SDS011;44843;44.728;10.396;2024-01-15T13:17:38;47.03;;;24.92;;
59052;SDS011;44843;44.728;10.396;2024-01-15T13:20:05;45.33;;;26.05;;
59052;SDS011;44843;44.728;10.396;2024-01-15T13:22:31;52.83;;;27.05;;
59052;SDS011;44843;44.728;10.396;2024-01-15T13:24:57;46.22;;;25.98;;
59052;SDS011;44843;44.728;10.396;2024-01-15T13:27:23;48.80;;;25.88;;
59052;SDS011;44843;44.728;10.396;2024-01-15T13:29:48;49.00;;;24.90;;
59052;SDS011;44843;44.728;10.396;2024-01-15T13:32:14;48.22;;;25.35;;
59052;SDS011;44843;44.728;10.396;2024-01-15T13:34:47;47.22;;;26.35;;
59052;SDS011;44843;44.728;10.396;2024-01-15T13:37:12;50.50;;;25.45;;
59052;SDS011;44843;44.728;10.396;2024-01-15T13:39:38;44.28;;;25.20;;
59052;SDS011;44843;44.728;10.396;2024-01-15T13:42:03;46.65;;;25.65;;
59052;SDS011;44843;44.728;10.396;2024-01-15T13:44:29;47.35;;;25.98;;
59052;SDS011;44843;44.728;10.396;2024-01-15T13:46:54;49.25;;;25.27;;
59052;SDS011;44843;44.728;10.396;2024-01-15T13:49:19;44.35;;;24.65;;
59052;SDS011;44843;44.728;10.396;2024-01-15T13:51:45;43.40;;;24.05;;
59052;SDS011;44843;44.728;10.396;2024-01-15T13:54:10;42.97;;;25.40;;
59052;SDS011;44843;44.728;10.396;2024-01-15T13:56:36;46.33;;;26.08;;
59052;SDS011;44843;44.728;10.396;2024-01-15T13:59:01;46.78;;;23.17;;
59052;SDS011;44843;44.728;10.396;2024-01-15T14:01:27;45.05;;;24.90;;
59052;SDS011;44843;44.728;10.396;2024-01-15T14:03:53;48.95;;;24.63;;
59052;SDS011;44843;44.728;10.396;2024-01-15T14:06:19;44.35;;;24.60;;